createdAt,value
2018-10-07T00:01:48.256Z,89.90
2018-10-07T00:04:16.659Z,90.10
2018-10-07T00:06:44.867Z,89.90
2018-10-07T00:09:13.136Z,90.40
2018-10-07T00:11:41.536Z,90.30
2018-10-07T00:14:09.772Z,90.40
2018-10-07T00:16:38.072Z,90.80
2018-10-07T00:19:06.288Z,90.60
2018-10-07T00:21:34.501Z,90.60
2018-10-07T00:24:02.804Z,90.10
2018-10-07T00:26:31.089Z,90.30
2018-10-07T00:28:59.305Z,90.40
2018-10-07T00:31:27.699Z,90.30
2018-10-07T00:33:55.958Z,90.50
2018-10-07T00:36:24.229Z,90.50
2018-10-07T00:38:52.452Z,90.40
2018-10-07T00:41:20.728Z,90.50
2018-10-07T00:43:48.952Z,90.50
2018-10-07T00:46:18.156Z,90.60
2018-10-07T00:48:46.745Z,90.70
2018-10-07T00:51:14.943Z,90.70
2018-10-07T00:53:43.301Z,90.60
2018-10-07T00:56:11.559Z,90.50
2018-10-07T00:58:40.571Z,90.50
2018-10-07T01:01:08.873Z,91.10
2018-10-07T01:03:37.375Z,90.90
2018-10-07T01:06:05.663Z,90.90
2018-10-07T01:08:34.004Z,90.80
2018-10-07T01:11:02.362Z,91.30
2018-10-07T01:13:30.964Z,91.00
2018-10-07T01:15:59.923Z,91.40
2018-10-07T01:18:28.132Z,91.40
2018-10-07T01:20:56.383Z,91.10
2018-10-07T01:23:24.619Z,91.10
2018-10-07T01:25:52.879Z,91.70
2018-10-07T01:28:21.122Z,91.50
2018-10-07T01:30:50.361Z,91.50
2018-10-07T01:33:18.620Z,91.80
2018-10-07T01:35:46.911Z,91.60
2018-10-07T01:38:15.147Z,91.60
2018-10-07T01:40:50.631Z,91.90
2018-10-07T01:43:18.928Z,91.90
2018-10-07T01:45:47.447Z,91.90
2018-10-07T01:48:15.725Z,91.90
2018-10-07T01:50:43.964Z,91.90
2018-10-07T01:53:12.183Z,91.90
2018-10-07T01:55:40.419Z,91.90
2018-10-07T01:58:08.716Z,91.90
2018-10-07T02:00:36.999Z,91.90
2018-10-07T02:03:05.211Z,91.90
2018-10-07T02:05:33.547Z,91.90
2018-10-07T02:08:01.778Z,91.90
2018-10-07T02:10:30.135Z,91.90
2018-10-07T02:12:58.415Z,91.90
2018-10-07T02:15:26.809Z,91.90
2018-10-07T02:17:55.127Z,91.90
2018-10-07T02:20:23.458Z,91.90
2018-10-07T02:22:51.911Z,91.90
2018-10-07T02:25:21.091Z,91.90
2018-10-07T02:27:49.454Z,91.90
2018-10-07T02:30:17.720Z,91.90
2018-10-07T02:32:45.968Z,91.90
2018-10-07T02:35:14.239Z,91.90
2018-10-07T02:37:42.515Z,91.90
2018-10-07T02:40:10.834Z,91.90
2018-10-07T02:42:39.063Z,91.90
2018-10-07T02:45:07.374Z,91.90
2018-10-07T02:47:35.718Z,91.90
2018-10-07T02:50:22.311Z,91.90
2018-10-07T02:52:52.772Z,91.90
2018-10-07T02:55:37.705Z,91.90
2018-10-07T02:58:06.053Z,91.90
2018-10-07T03:00:34.306Z,91.90
2018-10-07T03:03:02.692Z,91.90
2018-10-07T03:05:31.035Z,91.90
2018-10-07T03:07:59.265Z,91.90
2018-10-07T03:10:27.519Z,91.90
2018-10-07T03:12:55.783Z,91.90
2018-10-07T03:15:24.003Z,91.90
2018-10-07T03:17:52.241Z,91.90
2018-10-07T03:20:20.493Z,91.90
2018-10-07T03:22:48.756Z,91.90
2018-10-07T03:25:17.042Z,91.90
2018-10-07T03:27:45.270Z,91.90
2018-10-07T03:30:14.088Z,91.90
2018-10-07T03:32:42.362Z,91.90
2018-10-07T03:35:10.677Z,91.90
2018-10-07T03:37:38.954Z,91.90
2018-10-07T03:40:07.173Z,91.90
2018-10-07T03:42:35.514Z,91.90
2018-10-07T03:45:03.839Z,91.90
2018-10-07T03:47:32.223Z,91.90
2018-10-07T03:50:00.487Z,91.90
2018-10-07T03:52:28.751Z,91.90
2018-10-07T03:54:57.079Z,91.90
2018-10-07T03:57:25.312Z,91.90
2018-10-07T03:59:53.587Z,91.90
2018-10-07T04:02:22.796Z,91.90
2018-10-07T04:04:51.052Z,91.90
2018-10-07T04:07:19.364Z,91.90
2018-10-07T04:09:48.021Z,91.90
2018-10-07T04:12:16.281Z,91.90
2018-10-07T04:14:44.496Z,91.90
2018-10-07T04:17:12.702Z,91.90
2018-10-07T04:19:40.932Z,91.90
2018-10-07T04:22:09.201Z,91.90
2018-10-07T04:24:37.500Z,91.90
2018-10-07T04:27:05.809Z,91.90
2018-10-07T04:29:34.059Z,91.90
2018-10-07T04:32:02.312Z,91.90
2018-10-07T04:34:31.507Z,91.90
2018-10-07T04:36:59.829Z,91.90
2018-10-07T04:39:28.070Z,91.90
2018-10-07T04:41:56.297Z,91.90
2018-10-07T04:44:24.563Z,91.90
2018-10-07T04:46:52.775Z,91.90
2018-10-07T04:49:21.023Z,91.90
2018-10-07T04:51:49.375Z,91.90
2018-10-07T04:54:17.604Z,91.90
2018-10-07T04:56:45.852Z,91.90
2018-10-07T04:59:16.028Z,91.90
2018-10-07T05:01:44.244Z,91.90
2018-10-07T05:04:12.497Z,91.90
2018-10-07T05:06:40.888Z,91.90
2018-10-07T05:09:10.471Z,91.90
2018-10-07T05:11:39.216Z,91.90
2018-10-07T05:14:08.547Z,91.90
2018-10-07T05:16:37.980Z,91.90
2018-10-07T05:19:06.814Z,91.90
2018-10-07T05:21:35.120Z,91.90
2018-10-07T05:24:03.357Z,91.90
2018-10-07T05:26:32.161Z,91.90
2018-10-07T05:29:00.373Z,91.90
2018-10-07T05:31:28.640Z,91.90
2018-10-07T05:33:56.867Z,91.90
2018-10-07T05:36:26.432Z,91.90
2018-10-07T05:38:54.743Z,91.90
2018-10-07T05:41:23.102Z,91.90
2018-10-07T05:43:51.315Z,91.90
2018-10-07T05:46:19.544Z,91.90
2018-10-07T05:48:47.871Z,91.90
2018-10-07T05:51:16.091Z,91.90
2018-10-07T05:53:44.383Z,91.90
2018-10-07T05:56:12.620Z,91.90
2018-10-07T05:58:41.018Z,91.90
2018-10-07T06:01:15.887Z,91.90
2018-10-07T06:04:21.675Z,91.90
2018-10-07T06:06:50.343Z,91.90
2018-10-07T06:09:26.956Z,91.90
2018-10-07T06:11:55.712Z,91.90
2018-10-07T06:14:35.332Z,91.90
2018-10-07T06:17:04.034Z,91.90
2018-10-07T06:19:32.635Z,91.90
2018-10-07T06:22:02.017Z,91.90
2018-10-07T06:24:30.267Z,91.90
2018-10-07T06:26:58.536Z,91.90
2018-10-07T06:29:27.303Z,91.90
2018-10-07T06:31:55.612Z,91.90
2018-10-07T06:34:24.115Z,91.90
2018-10-07T06:36:52.635Z,91.90
2018-10-07T06:39:20.993Z,91.90
2018-10-07T06:41:49.864Z,91.90
2018-10-07T06:44:18.116Z,91.90
2018-10-07T06:46:46.636Z,91.90
2018-10-07T06:49:15.137Z,91.90
2018-10-07T06:51:43.568Z,91.90
2018-10-07T06:54:12.480Z,91.90
2018-10-07T06:56:41.552Z,91.90
2018-10-07T06:59:09.893Z,91.90
2018-10-07T07:01:38.266Z,91.90
2018-10-07T07:04:06.584Z,91.90
2018-10-07T07:06:34.907Z,91.90
2018-10-07T07:09:04.805Z,91.90
2018-10-07T07:11:33.255Z,91.90
2018-10-07T07:14:01.531Z,91.90
2018-10-07T07:16:29.809Z,91.90
2018-10-07T07:18:58.077Z,91.90
2018-10-07T07:21:26.332Z,91.90
2018-10-07T07:23:54.616Z,91.90
2018-10-07T07:26:22.907Z,91.90
2018-10-07T07:28:51.236Z,91.90
2018-10-07T07:31:19.542Z,91.90
2018-10-07T07:33:47.812Z,91.90
2018-10-07T07:36:16.060Z,91.90
2018-10-07T07:38:44.363Z,91.90
2018-10-07T07:41:12.667Z,91.90
2018-10-07T07:43:41.001Z,91.90
2018-10-07T07:46:09.343Z,91.90
2018-10-07T07:48:37.664Z,91.90
2018-10-07T07:51:05.999Z,91.90
2018-10-07T07:53:35.133Z,91.90
2018-10-07T07:56:03.536Z,91.90
2018-10-07T07:58:31.777Z,91.90
2018-10-07T08:01:00.451Z,91.90
2018-10-07T08:03:28.689Z,91.90
2018-10-07T08:05:57.964Z,91.90
2018-10-07T08:08:26.227Z,91.40
2018-10-07T08:10:54.492Z,91.40
2018-10-07T08:13:22.719Z,90.50
2018-10-07T08:15:51.062Z,90.50
2018-10-07T08:18:19.919Z,90.30
2018-10-07T08:20:48.118Z,90.10
2018-10-07T08:23:16.372Z,90.10
2018-10-07T08:25:44.605Z,89.80
2018-10-07T08:28:12.918Z,89.90
2018-10-07T08:30:41.754Z,89.50
2018-10-07T08:33:10.003Z,89.50
2018-10-07T08:35:38.301Z,89.50
2018-10-07T08:38:07.218Z,89.40
2018-10-07T08:40:35.439Z,89.50
2018-10-07T08:43:03.746Z,89.40
2018-10-07T08:45:32.100Z,89.50
2018-10-07T08:48:00.339Z,89.40
2018-10-07T08:50:29.547Z,89.20
2018-10-07T08:52:57.816Z,88.80
2018-10-07T08:55:26.095Z,88.80
2018-10-07T08:57:54.419Z,88.70
2018-10-07T09:00:23.727Z,88.70
2018-10-07T09:02:52.056Z,89.00
2018-10-07T09:05:20.313Z,88.90
2018-10-07T09:07:48.615Z,88.70
2018-10-07T09:10:16.909Z,88.70
2018-10-07T09:12:45.115Z,88.70
2018-10-07T09:15:13.561Z,88.10
2018-10-07T09:17:41.776Z,87.70
2018-10-07T09:20:10.521Z,87.70
2018-10-07T09:22:38.731Z,87.00
2018-10-07T09:25:07.108Z,86.70
2018-10-07T09:27:35.466Z,86.50
2018-10-07T09:30:03.621Z,86.60
2018-10-07T09:32:31.884Z,86.70
2018-10-07T09:35:00.132Z,86.00
2018-10-07T09:37:28.437Z,85.40
2018-10-07T09:39:57.452Z,84.40
2018-10-07T09:42:25.638Z,84.30
2018-10-07T09:44:54.003Z,84.30
2018-10-07T09:47:22.255Z,83.50
2018-10-07T09:49:50.939Z,83.30
2018-10-07T09:52:19.323Z,83.60
2018-10-07T09:54:47.658Z,83.70
2018-10-07T09:57:17.380Z,83.20
2018-10-07T09:59:45.593Z,82.80
2018-10-07T10:02:14.082Z,82.80
2018-10-07T10:04:42.371Z,82.60
2018-10-07T10:07:10.991Z,82.60
2018-10-07T10:09:39.727Z,82.00
2018-10-07T10:12:08.015Z,82.10
2018-10-07T10:14:36.934Z,81.90
2018-10-07T10:17:10.137Z,81.80
2018-10-07T10:20:02.359Z,81.30
2018-10-07T10:22:44.491Z,81.10
2018-10-07T10:25:20.508Z,81.10
2018-10-07T10:27:55.231Z,81.10
2018-10-07T10:30:29.058Z,80.90
2018-10-07T10:33:06.157Z,80.60
2018-10-07T10:35:37.597Z,80.40
2018-10-07T10:38:14.387Z,79.70
2018-10-07T10:40:52.299Z,79.10
2018-10-07T10:43:25.438Z,78.20
2018-10-07T10:45:56.500Z,77.80
2018-10-07T10:49:28.940Z,77.00
2018-10-07T10:54:38.996Z,76.00
2018-10-07T10:57:10.851Z,76.20
2018-10-07T10:59:45.577Z,77.10
2018-10-07T11:02:24.576Z,77.20
2018-10-07T11:05:04.068Z,76.80
2018-10-07T11:07:45.956Z,76.70
2018-10-07T11:10:29.237Z,76.90
2018-10-07T11:14:04.588Z,77.30
2018-10-07T11:18:46.503Z,77.20
2018-10-07T11:21:28.219Z,76.90
2018-10-07T11:26:13.429Z,76.50
2018-10-07T11:30:54.121Z,76.40
2018-10-07T11:35:00.167Z,75.80
2018-10-07T11:38:15.069Z,75.60
2018-10-07T11:40:54.876Z,75.00
2018-10-07T11:43:29.897Z,74.30
2018-10-07T11:46:08.820Z,73.70
2018-10-07T11:49:10.264Z,74.00
2018-10-07T11:51:49.838Z,74.40
2018-10-07T11:54:28.916Z,74.10
2018-10-07T11:56:57.160Z,74.00
2018-10-07T11:59:25.662Z,74.10
2018-10-07T12:01:53.939Z,73.70
2018-10-07T12:04:22.228Z,73.40
2018-10-07T12:06:50.476Z,72.70
2018-10-07T12:09:18.736Z,72.30
2018-10-07T12:11:47.028Z,72.20
2018-10-07T12:14:15.980Z,72.60
2018-10-07T12:16:44.263Z,72.70
2018-10-07T12:19:12.556Z,72.90
2018-10-07T12:21:43.868Z,72.60
2018-10-07T12:24:12.115Z,71.80
2018-10-07T12:26:40.404Z,71.80
2018-10-07T12:29:08.923Z,71.70
2018-10-07T12:31:37.115Z,70.60
2018-10-07T12:34:05.457Z,71.10
2018-10-07T12:36:33.730Z,70.80
2018-10-07T12:39:02.064Z,70.50
2018-10-07T12:41:30.325Z,70.80
2018-10-07T12:43:58.659Z,71.10
2018-10-07T12:46:26.945Z,70.90
2018-10-07T12:48:55.680Z,70.60
2018-10-07T12:51:24.051Z,69.70
2018-10-07T12:53:52.290Z,70.30
2018-10-07T12:56:20.506Z,69.90
2018-10-07T12:58:48.737Z,69.60
2018-10-07T13:01:16.999Z,69.60
2018-10-07T13:03:45.280Z,69.10
2018-10-07T13:06:13.541Z,69.10
2018-10-07T13:08:41.805Z,69.00
2018-10-07T13:11:10.037Z,68.90
2018-10-07T13:13:38.300Z,68.70
2018-10-07T13:16:06.644Z,68.50
2018-10-07T13:18:34.925Z,68.70
2018-10-07T13:21:03.836Z,68.70
2018-10-07T13:23:32.147Z,68.50
2018-10-07T13:26:00.515Z,68.50
2018-10-07T13:28:28.756Z,68.50
2018-10-07T13:30:56.999Z,68.30
2018-10-07T13:33:25.337Z,67.60
2018-10-07T13:35:53.909Z,66.80
2018-10-07T13:38:22.299Z,66.50
2018-10-07T13:40:51.570Z,66.70
2018-10-07T13:43:19.841Z,65.30
2018-10-07T13:45:48.127Z,65.50
2018-10-07T13:48:16.497Z,65.00
2018-10-07T13:50:44.728Z,64.80
2018-10-07T13:53:13.000Z,64.40
2018-10-07T13:55:41.248Z,63.80
2018-10-07T13:58:09.514Z,63.20
2018-10-07T14:00:37.849Z,62.80
2018-10-07T14:03:06.367Z,62.30
2018-10-07T14:05:34.624Z,62.20
2018-10-07T14:08:02.875Z,62.10
2018-10-07T14:10:31.128Z,61.20
2018-10-07T14:12:59.403Z,60.80
2018-10-07T14:15:27.748Z,60.90
2018-10-07T14:17:56.016Z,60.20
2018-10-07T14:20:24.269Z,57.20
2018-10-07T14:22:52.546Z,53.40
2018-10-07T14:25:21.002Z,50.90
2018-10-07T14:27:49.575Z,48.20
2018-10-07T14:30:17.860Z,46.60
2018-10-07T14:32:46.195Z,44.20
2018-10-07T14:35:14.408Z,43.80
2018-10-07T14:37:42.700Z,43.50
2018-10-07T14:40:11.035Z,43.40
2018-10-07T14:42:39.288Z,42.30
2018-10-07T14:45:07.613Z,42.90
2018-10-07T14:47:37.164Z,43.40
2018-10-07T14:50:06.119Z,44.70
2018-10-07T14:52:34.403Z,44.40
2018-10-07T14:55:02.626Z,44.00
2018-10-07T14:57:30.894Z,44.50
2018-10-07T14:59:59.113Z,43.70
2018-10-07T15:02:27.388Z,43.40
2018-10-07T15:04:56.726Z,43.90
2018-10-07T15:07:24.968Z,45.30
2018-10-07T15:09:53.200Z,46.40
2018-10-07T15:12:21.466Z,47.30
2018-10-07T15:14:49.702Z,47.20
2018-10-07T15:17:18.023Z,46.90
2018-10-07T15:19:46.207Z,46.40
2018-10-07T15:22:14.500Z,45.80
2018-10-07T15:24:42.892Z,49.10
2018-10-07T15:27:11.121Z,53.40
2018-10-07T15:29:39.420Z,52.70
2018-10-07T15:32:08.345Z,53.10
2018-10-07T15:34:36.628Z,56.00
2018-10-07T15:37:05.103Z,58.70
2018-10-07T15:39:33.417Z,60.90
2018-10-07T15:42:02.718Z,63.30
2018-10-07T15:44:30.986Z,65.00
2018-10-07T15:46:59.318Z,66.90
2018-10-07T15:49:27.540Z,67.50
2018-10-07T15:51:55.832Z,68.10
2018-10-07T15:54:24.128Z,68.70
2018-10-07T15:56:52.570Z,69.50
2018-10-07T15:59:20.651Z,70.00
2018-10-07T16:01:48.940Z,71.30
2018-10-07T16:04:17.199Z,71.60
2018-10-07T16:06:45.471Z,72.60
2018-10-07T16:09:13.731Z,73.30
2018-10-07T16:11:42.085Z,73.50
2018-10-07T16:14:10.292Z,73.80
2018-10-07T16:16:38.548Z,74.10
2018-10-07T16:19:06.792Z,74.90
2018-10-07T16:21:34.983Z,75.00
2018-10-07T16:24:03.127Z,75.50
2018-10-07T16:26:31.365Z,75.60
2018-10-07T16:29:00.124Z,75.80
2018-10-07T16:31:28.353Z,75.40
2018-10-07T16:33:56.555Z,75.40
2018-10-07T16:36:24.728Z,76.00
2018-10-07T16:38:52.904Z,75.80
2018-10-07T16:41:21.115Z,76.60
2018-10-07T16:43:49.511Z,77.30
2018-10-07T16:46:17.786Z,77.60
2018-10-07T16:48:53.452Z,77.20
2018-10-07T16:51:21.715Z,77.40
2018-10-07T16:53:49.986Z,77.00
2018-10-07T16:56:18.201Z,78.00
2018-10-07T16:58:46.399Z,78.00
2018-10-07T17:01:14.643Z,77.90
2018-10-07T17:03:42.869Z,77.70
2018-10-07T17:06:11.743Z,77.90
2018-10-07T17:08:40.007Z,78.20
2018-10-07T17:11:08.216Z,78.10
2018-10-07T17:13:36.471Z,78.80
2018-10-07T17:16:04.634Z,78.50
2018-10-07T17:18:32.955Z,78.80
2018-10-07T17:21:01.312Z,79.50
2018-10-07T17:23:29.512Z,79.20
2018-10-07T17:25:57.791Z,79.20
2018-10-07T17:28:26.012Z,79.60
2018-10-07T17:30:54.279Z,79.60
2018-10-07T17:33:23.119Z,80.00
2018-10-07T17:35:51.371Z,79.80
2018-10-07T17:38:19.675Z,80.00
2018-10-07T17:40:48.028Z,80.20
2018-10-07T17:43:16.262Z,80.30
2018-10-07T17:45:44.535Z,80.00
2018-10-07T17:48:12.862Z,80.00
2018-10-07T17:50:41.017Z,80.50
2018-10-07T17:53:09.310Z,80.60
2018-10-07T17:55:37.779Z,80.60
2018-10-07T17:58:06.895Z,80.50
2018-10-07T18:00:35.105Z,80.90
2018-10-07T18:03:03.414Z,81.20
2018-10-07T18:05:32.044Z,81.30
2018-10-07T18:08:01.151Z,82.00
2018-10-07T18:10:29.412Z,82.30
2018-10-07T18:12:57.655Z,82.40
2018-10-07T18:15:25.904Z,82.30
2018-10-07T18:17:54.210Z,82.30
2018-10-07T18:20:22.446Z,82.70
2018-10-07T18:22:50.688Z,82.10
2018-10-07T18:25:18.982Z,82.30
2018-10-07T18:27:53.894Z,83.00
2018-10-07T18:30:22.269Z,82.50
2018-10-07T18:32:50.471Z,82.70
2018-10-07T18:35:18.735Z,82.20
2018-10-07T18:37:46.992Z,82.10
2018-10-07T18:40:15.310Z,82.20
2018-10-07T18:42:43.498Z,82.00
2018-10-07T18:45:11.828Z,82.40
2018-10-07T18:47:40.088Z,82.20
2018-10-07T18:50:08.320Z,82.30
2018-10-07T18:52:36.606Z,82.70
2018-10-07T18:55:05.440Z,82.60
2018-10-07T18:57:33.631Z,82.70
2018-10-07T19:00:01.879Z,82.70
2018-10-07T19:02:30.159Z,82.90
2018-10-07T19:04:58.331Z,83.30
2018-10-07T19:07:26.575Z,84.80
2018-10-07T19:09:54.832Z,84.70
2018-10-07T19:12:23.050Z,83.40
2018-10-07T19:14:51.327Z,83.10
2018-10-07T19:17:19.552Z,83.30
2018-10-07T19:19:47.862Z,83.70
2018-10-07T19:22:16.123Z,83.50
2018-10-07T19:24:44.361Z,83.90
2018-10-07T19:27:12.522Z,83.90
2018-10-07T19:29:40.843Z,84.40
2018-10-07T19:32:09.046Z,84.70
2018-10-07T19:34:37.298Z,85.00
2018-10-07T19:37:05.739Z,85.50
2018-10-07T19:39:33.899Z,85.90
2018-10-07T19:42:02.171Z,86.40
2018-10-07T19:44:30.447Z,86.50
2018-10-07T19:46:58.686Z,86.50
2018-10-07T19:49:26.947Z,86.70
2018-10-07T19:51:55.199Z,86.70
2018-10-07T19:54:23.412Z,86.70
2018-10-07T19:56:51.652Z,86.50
2018-10-07T19:59:19.864Z,86.80
2018-10-07T20:01:48.120Z,87.00
2018-10-07T20:04:16.776Z,87.00
2018-10-07T20:06:45.342Z,87.00
2018-10-07T20:09:13.951Z,87.30
2018-10-07T20:11:42.284Z,87.80
2018-10-07T20:14:11.252Z,87.80
2018-10-07T20:16:39.488Z,88.60
2018-10-07T20:19:08.672Z,87.70
2018-10-07T20:21:37.436Z,88.00
2018-10-07T20:24:05.943Z,88.00
2018-10-07T20:26:34.839Z,88.40
2018-10-07T20:29:03.143Z,88.30
2018-10-07T20:31:31.515Z,88.60
2018-10-07T20:33:59.871Z,88.90
2018-10-07T20:36:28.168Z,88.80
2018-10-07T20:38:56.884Z,89.50
2018-10-07T20:41:25.591Z,89.50
2018-10-07T20:43:53.829Z,89.50
2018-10-07T20:46:22.138Z,90.50
2018-10-07T20:48:51.695Z,90.70
2018-10-07T20:51:19.970Z,90.80
2018-10-07T20:53:48.219Z,90.80
2018-10-07T20:56:16.795Z,90.90
2018-10-07T20:58:45.193Z,90.60
2018-10-07T21:01:13.388Z,90.30
2018-10-07T21:03:41.637Z,90.40
2018-10-07T21:06:09.994Z,90.60
2018-10-07T21:08:38.231Z,90.70
2018-10-07T21:11:06.740Z,90.80
2018-10-07T21:13:35.267Z,91.00
2018-10-07T21:16:03.547Z,90.90
2018-10-07T21:18:31.811Z,90.90
2018-10-07T21:21:00.083Z,91.00
2018-10-07T21:23:28.392Z,91.00
2018-10-07T21:25:56.809Z,90.80
2018-10-07T21:28:25.126Z,90.80
2018-10-07T21:30:53.530Z,90.70
2018-10-07T21:33:21.748Z,90.40
2018-10-07T21:35:50.048Z,90.40
2018-10-07T21:38:19.207Z,90.30
2018-10-07T21:40:47.484Z,90.40
2018-10-07T21:43:15.731Z,90.40
2018-10-07T21:45:44.294Z,90.20
2018-10-07T21:48:12.547Z,90.20
2018-10-07T21:50:40.789Z,90.00
2018-10-07T21:53:09.412Z,90.00
2018-10-07T21:55:37.692Z,90.30
2018-10-07T21:58:05.945Z,90.40
2018-10-07T22:00:34.360Z,90.50
2018-10-07T22:03:02.615Z,90.50
2018-10-07T22:05:30.903Z,91.00
2018-10-07T22:07:59.209Z,91.00
2018-10-07T22:10:27.476Z,91.30
2018-10-07T22:12:55.786Z,91.40
2018-10-07T22:15:24.165Z,91.50
2018-10-07T22:17:52.461Z,91.80
2018-10-07T22:20:21.431Z,91.90
2018-10-07T22:22:50.271Z,91.90
2018-10-07T22:25:18.496Z,91.90
2018-10-07T22:27:46.719Z,91.90
2018-10-07T22:30:15.032Z,91.50
2018-10-07T22:32:43.863Z,91.50
2018-10-07T22:35:12.098Z,91.70
2018-10-07T22:37:40.408Z,91.50
2018-10-07T22:40:08.751Z,91.80
2018-10-07T22:42:37.093Z,91.90
2018-10-07T22:45:05.663Z,91.90
2018-10-07T22:47:33.923Z,91.90
2018-10-07T22:50:02.107Z,91.90
2018-10-07T22:52:30.355Z,91.90
2018-10-07T22:54:58.547Z,91.90
2018-10-07T22:57:26.850Z,91.90
2018-10-07T22:59:55.092Z,91.90
2018-10-07T23:02:23.388Z,91.90
2018-10-07T23:04:51.725Z,91.90
2018-10-07T23:07:19.999Z,91.90
2018-10-07T23:09:48.364Z,91.90
2018-10-07T23:12:16.671Z,91.90
2018-10-07T23:14:44.892Z,91.90
2018-10-07T23:17:13.186Z,91.90
2018-10-07T23:19:41.676Z,91.90
2018-10-07T23:22:09.901Z,91.90
2018-10-07T23:24:38.139Z,91.90
2018-10-07T23:27:06.563Z,91.90
2018-10-07T23:29:34.827Z,91.90
2018-10-07T23:32:03.174Z,91.90
2018-10-07T23:34:31.435Z,91.90
2018-10-07T23:36:59.678Z,91.90
2018-10-07T23:39:28.005Z,91.90
2018-10-07T23:41:56.256Z,91.90
2018-10-07T23:44:24.693Z,91.90
2018-10-07T23:46:52.988Z,91.90
2018-10-07T23:49:21.267Z,91.90
2018-10-07T23:51:49.596Z,91.90
2018-10-07T23:54:17.784Z,91.90
2018-10-07T23:56:46.029Z,91.90
2018-10-07T23:59:14.392Z,91.90
